createdAt,value
2023-12-13T00:00:00.381Z,90.34
2023-12-13T00:02:29.187Z,90.19
2023-12-13T00:04:57.287Z,90.32
2023-12-13T00:07:25.398Z,90.50
2023-12-13T00:09:53.623Z,90.75
2023-12-13T00:12:21.628Z,91.06
2023-12-13T00:14:49.611Z,91.32
2023-12-13T00:17:19.458Z,91.14
2023-12-13T00:19:48.363Z,91.21
2023-12-13T00:22:16.819Z,90.99
2023-12-13T00:24:44.948Z,90.98
2023-12-13T00:27:13.095Z,91.06
2023-12-13T00:29:42.133Z,91.36
2023-12-13T00:32:11.303Z,91.19
2023-12-13T00:34:39.634Z,91.04
2023-12-13T00:37:07.798Z,90.65
2023-12-13T00:39:35.941Z,90.85
2023-12-13T00:42:04.219Z,90.80
2023-12-13T00:44:32.742Z,90.69
2023-12-13T00:47:00.987Z,90.76
2023-12-13T00:49:29.243Z,90.78
2023-12-13T00:51:57.252Z,90.64
2023-12-13T00:54:26.213Z,90.55
2023-12-13T00:56:54.450Z,90.60
2023-12-13T00:59:22.884Z,90.31
2023-12-13T01:01:51.073Z,90.75
2023-12-13T01:04:19.670Z,91.02
2023-12-13T01:06:47.842Z,91.12
2023-12-13T01:09:15.779Z,90.88
2023-12-13T01:11:43.991Z,90.73
2023-12-13T01:14:12.091Z,91.05
2023-12-13T01:16:40.217Z,91.01
2023-12-13T01:19:09.252Z,90.83
2023-12-13T01:21:37.756Z,90.99
2023-12-13T01:24:05.899Z,91.02
2023-12-13T01:26:34.406Z,91.00
2023-12-13T01:29:02.519Z,91.16
2023-12-13T01:31:30.907Z,91.02
2023-12-13T01:33:59.158Z,90.99
2023-12-13T01:36:27.215Z,90.96
2023-12-13T01:38:55.216Z,91.13
2023-12-13T01:41:23.408Z,90.61
2023-12-13T01:43:51.647Z,90.53
2023-12-13T01:46:19.991Z,91.00
2023-12-13T01:48:48.627Z,91.06
2023-12-13T01:51:17.195Z,91.22
2023-12-13T01:53:45.583Z,91.04
2023-12-13T01:56:14.237Z,90.80
2023-12-13T01:58:43.154Z,90.84
2023-12-13T02:01:11.631Z,90.64
2023-12-13T02:03:40.873Z,90.30
2023-12-13T02:06:08.895Z,90.48
2023-12-13T02:08:37.250Z,90.55
2023-12-13T02:11:05.672Z,90.65
2023-12-13T02:13:34.746Z,90.65
2023-12-13T02:16:02.950Z,90.43
2023-12-13T02:18:31.671Z,90.46
2023-12-13T02:20:59.773Z,90.57
2023-12-13T02:23:27.826Z,90.60
2023-12-13T02:26:03.933Z,90.35
2023-12-13T02:28:32.458Z,90.36
2023-12-13T02:31:01.939Z,90.14
2023-12-13T02:33:31.498Z,90.05
2023-12-13T02:36:02.483Z,90.13
2023-12-13T02:38:31.028Z,90.15
2023-12-13T02:40:59.752Z,90.01
2023-12-13T02:43:29.509Z,90.27
2023-12-13T02:45:57.734Z,90.35
2023-12-13T02:48:26.459Z,90.29
2023-12-13T02:50:54.786Z,89.98
2023-12-13T02:53:23.473Z,89.84
2023-12-13T02:55:52.412Z,89.55
2023-12-13T02:58:20.795Z,89.52
2023-12-13T03:00:49.772Z,89.72
2023-12-13T03:03:17.850Z,89.96
2023-12-13T03:05:46.085Z,90.08
2023-12-13T03:08:18.200Z,90.46
2023-12-13T03:10:46.415Z,90.54
2023-12-13T03:13:14.715Z,91.09
2023-12-13T03:15:42.719Z,91.30
2023-12-13T03:18:11.699Z,91.41
2023-12-13T03:20:40.740Z,91.27
2023-12-13T03:23:10.189Z,91.32
2023-12-13T03:25:38.346Z,91.32
2023-12-13T03:28:06.885Z,91.05
2023-12-13T03:30:35.052Z,91.24
2023-12-13T03:33:03.180Z,91.55
2023-12-13T03:35:31.199Z,91.35
2023-12-13T03:37:59.238Z,91.32
2023-12-13T03:40:27.274Z,91.42
2023-12-13T03:42:55.299Z,91.10
2023-12-13T03:45:25.504Z,91.15
2023-12-13T03:47:54.333Z,91.31
2023-12-13T03:50:22.655Z,91.34
2023-12-13T03:52:50.779Z,91.37
2023-12-13T03:55:19.053Z,91.47
2023-12-13T03:57:47.188Z,91.57
2023-12-13T04:00:15.345Z,91.57
2023-12-13T04:02:43.466Z,91.38
2023-12-13T04:05:11.681Z,91.41
2023-12-13T04:07:39.880Z,91.60
2023-12-13T04:10:08.475Z,91.73
2023-12-13T04:12:36.587Z,91.60
2023-12-13T04:15:05.322Z,91.60
2023-12-13T04:17:33.725Z,91.61
2023-12-13T04:20:02.209Z,91.74
2023-12-13T04:22:30.538Z,91.75
2023-12-13T04:24:58.452Z,91.67
2023-12-13T04:27:26.586Z,91.31
2023-12-13T04:29:54.895Z,91.24
2023-12-13T04:32:22.888Z,91.19
2023-12-13T04:34:51.119Z,91.30
2023-12-13T04:37:19.374Z,91.12
2023-12-13T04:39:47.519Z,90.82
2023-12-13T04:42:15.433Z,90.94
2023-12-13T04:44:43.679Z,91.12
2023-12-13T04:47:11.956Z,91.38
2023-12-13T04:49:40.003Z,91.45
2023-12-13T04:52:08.291Z,91.31
2023-12-13T04:54:39.095Z,91.24
2023-12-13T04:57:07.169Z,91.34
2023-12-13T04:59:35.547Z,91.82
2023-12-13T05:02:03.760Z,91.93
2023-12-13T05:04:31.998Z,91.78
2023-12-13T05:07:00.440Z,91.70
2023-12-13T05:09:28.515Z,91.91
2023-12-13T05:11:56.746Z,92.03
2023-12-13T05:14:24.801Z,92.09
2023-12-13T05:16:52.854Z,91.97
2023-12-13T05:19:21.944Z,91.79
2023-12-13T05:21:50.247Z,91.76
2023-12-13T05:24:18.441Z,91.98
2023-12-13T05:26:46.519Z,92.09
2023-12-13T05:29:14.596Z,92.04
2023-12-13T05:31:42.726Z,92.05
2023-12-13T05:34:10.732Z,91.91
2023-12-13T05:36:38.844Z,91.74
2023-12-13T05:39:08.637Z,91.70
2023-12-13T05:41:36.730Z,91.68
2023-12-13T05:44:05.168Z,91.93
2023-12-13T05:46:35.632Z,92.04
2023-12-13T05:49:09.000Z,92.30
2023-12-13T05:51:38.742Z,92.06
2023-12-13T05:54:07.414Z,91.68
2023-12-13T05:56:35.943Z,91.69
2023-12-13T05:59:04.591Z,91.70
2023-12-13T06:01:32.843Z,91.46
2023-12-13T06:04:01.005Z,91.46
2023-12-13T06:06:29.138Z,91.68
2023-12-13T06:08:57.153Z,91.57
2023-12-13T06:11:25.690Z,91.31
2023-12-13T06:13:53.819Z,91.01
2023-12-13T06:16:22.098Z,91.02
2023-12-13T06:18:50.405Z,90.82
2023-12-13T06:21:18.541Z,90.62
2023-12-13T06:23:46.494Z,90.61
2023-12-13T06:26:14.405Z,90.70
2023-12-13T06:28:42.466Z,90.56
2023-12-13T06:31:10.724Z,90.41
2023-12-13T06:33:39.113Z,90.67
2023-12-13T06:36:07.586Z,90.85
2023-12-13T06:38:35.790Z,90.68
2023-12-13T06:41:03.925Z,90.64
2023-12-13T06:43:32.136Z,90.77
2023-12-13T06:46:00.232Z,90.63
2023-12-13T06:48:29.737Z,90.52
2023-12-13T06:50:57.818Z,90.31
2023-12-13T06:53:26.181Z,90.36
2023-12-13T06:55:55.531Z,90.49
2023-12-13T06:58:23.925Z,90.69
2023-12-13T07:00:52.661Z,91.05
2023-12-13T07:03:21.774Z,90.95
2023-12-13T07:05:49.995Z,90.92
2023-12-13T07:08:18.270Z,90.97
2023-12-13T07:10:46.615Z,91.08
2023-12-13T07:13:14.873Z,91.19
2023-12-13T07:15:42.929Z,91.17
2023-12-13T07:18:10.938Z,91.14
2023-12-13T07:20:41.785Z,91.04
2023-12-13T07:23:11.785Z,90.89
2023-12-13T07:25:40.473Z,90.82
2023-12-13T07:28:09.471Z,90.64
2023-12-13T07:30:39.069Z,90.58
2023-12-13T07:33:11.997Z,90.68
2023-12-13T07:35:40.197Z,90.82
2023-12-13T07:38:08.300Z,90.94
2023-12-13T07:40:36.346Z,91.07
2023-12-13T07:43:04.871Z,91.29
2023-12-13T07:45:33.311Z,91.20
2023-12-13T07:48:13.603Z,91.09
2023-12-13T07:50:49.514Z,91.16
2023-12-13T07:53:17.723Z,91.70
2023-12-13T07:55:45.794Z,91.70
2023-12-13T07:58:14.083Z,91.74
2023-12-13T08:00:42.336Z,92.05
2023-12-13T08:03:10.904Z,92.21
2023-12-13T08:05:39.038Z,91.88
2023-12-13T08:08:07.032Z,91.82
2023-12-13T08:10:35.487Z,91.92
2023-12-13T08:13:04.489Z,91.59
2023-12-13T08:15:32.537Z,91.43
2023-12-13T08:18:00.883Z,91.25
2023-12-13T08:20:31.798Z,91.11
2023-12-13T08:22:59.948Z,91.06
2023-12-13T08:25:28.133Z,91.02
2023-12-13T08:27:56.414Z,91.08
2023-12-13T08:30:24.610Z,91.08
2023-12-13T08:32:52.650Z,91.04
2023-12-13T08:35:20.908Z,91.14
2023-12-13T08:37:49.101Z,90.96
2023-12-13T08:40:17.257Z,91.01
2023-12-13T08:42:46.087Z,91.02
2023-12-13T08:45:14.612Z,90.79
2023-12-13T08:47:42.797Z,90.64
2023-12-13T08:50:11.223Z,90.43
2023-12-13T08:52:39.813Z,90.29
2023-12-13T08:55:11.651Z,90.59
2023-12-13T08:57:39.778Z,90.46
2023-12-13T09:00:10.686Z,90.20
2023-12-13T09:02:39.856Z,89.88
2023-12-13T09:05:08.625Z,89.90
2023-12-13T09:07:37.567Z,89.96
2023-12-13T09:10:09.511Z,89.87
2023-12-13T09:12:38.018Z,89.68
2023-12-13T09:15:08.824Z,89.56
2023-12-13T09:17:37.884Z,89.40
2023-12-13T09:20:11.059Z,89.09
2023-12-13T09:22:39.756Z,89.16
2023-12-13T09:25:08.641Z,88.97
2023-12-13T09:27:37.338Z,88.99
2023-12-13T09:30:06.028Z,88.95
2023-12-13T09:32:36.888Z,89.21
2023-12-13T09:35:05.742Z,89.41
2023-12-13T09:37:34.337Z,89.42
2023-12-13T09:40:03.748Z,89.02
2023-12-13T09:42:32.639Z,88.86
2023-12-13T09:45:03.218Z,89.11
2023-12-13T09:47:35.129Z,89.05
2023-12-13T09:50:03.788Z,89.19
2023-12-13T09:52:33.218Z,89.29
2023-12-13T09:55:02.408Z,89.38
2023-12-13T09:57:30.573Z,89.23
2023-12-13T09:59:58.975Z,89.18
2023-12-13T10:02:27.549Z,89.18
2023-12-13T10:04:57.815Z,88.98
2023-12-13T10:07:26.781Z,88.94
2023-12-13T10:09:56.913Z,88.86
2023-12-13T10:12:26.828Z,88.82
2023-12-13T10:14:55.058Z,89.10
2023-12-13T10:17:23.996Z,89.13
2023-12-13T10:19:52.149Z,89.14
2023-12-13T10:22:20.568Z,89.01
2023-12-13T10:24:49.285Z,88.32
2023-12-13T10:27:18.199Z,88.21
2023-12-13T10:29:49.262Z,88.33
2023-12-13T10:32:19.914Z,88.12
2023-12-13T10:34:48.109Z,87.84
2023-12-13T10:37:16.783Z,87.79
2023-12-13T10:39:48.043Z,87.93
2023-12-13T10:42:19.420Z,88.08
2023-12-13T10:44:52.002Z,88.12
2023-12-13T10:47:28.094Z,87.96
2023-12-13T10:49:57.472Z,87.74
2023-12-13T10:52:28.252Z,87.66
2023-12-13T10:54:57.090Z,87.60
2023-12-13T10:57:25.926Z,87.80
2023-12-13T10:59:55.273Z,87.52
2023-12-13T11:02:27.560Z,87.12
2023-12-13T11:04:56.070Z,87.19
2023-12-13T11:07:24.232Z,87.13
2023-12-13T11:09:54.407Z,87.06
2023-12-13T11:12:23.496Z,86.81
2023-12-13T11:14:53.457Z,86.51
2023-12-13T11:17:23.847Z,86.28
2023-12-13T11:19:54.302Z,86.34
2023-12-13T11:22:24.982Z,86.58
2023-12-13T11:25:04.776Z,86.97
2023-12-13T11:27:33.898Z,86.80
2023-12-13T11:30:14.078Z,86.73
2023-12-13T11:32:49.911Z,86.63
2023-12-13T11:35:20.903Z,86.97
2023-12-13T11:37:54.562Z,87.08
2023-12-13T11:40:23.194Z,87.00
2023-12-13T11:42:51.989Z,87.35
2023-12-13T11:45:21.696Z,87.33
2023-12-13T11:47:51.687Z,86.95
2023-12-13T11:50:21.447Z,86.60
2023-12-13T11:52:50.070Z,86.21
2023-12-13T11:55:23.914Z,86.17
2023-12-13T11:57:54.978Z,86.20
2023-12-13T12:00:23.297Z,86.04
2023-12-13T12:02:55.341Z,85.94
2023-12-13T12:05:26.978Z,85.98
2023-12-13T12:08:04.832Z,85.96
2023-12-13T12:10:33.605Z,85.72
2023-12-13T12:13:02.902Z,85.59
2023-12-13T12:15:32.780Z,85.67
2023-12-13T12:18:02.724Z,85.09
2023-12-13T12:20:30.886Z,85.23
2023-12-13T12:22:59.645Z,85.67
2023-12-13T12:25:31.999Z,85.31
2023-12-13T12:28:00.399Z,85.19
2023-12-13T12:30:28.718Z,85.01
2023-12-13T12:32:57.022Z,84.89
2023-12-13T12:35:25.149Z,84.91
2023-12-13T12:37:53.211Z,84.68
2023-12-13T12:40:21.516Z,84.77
2023-12-13T12:42:49.612Z,84.36
2023-12-13T12:45:17.661Z,84.26
2023-12-13T12:47:45.923Z,84.41
2023-12-13T12:50:14.201Z,84.46
2023-12-13T12:52:43.525Z,84.67
2023-12-13T12:55:12.031Z,84.63
2023-12-13T12:57:40.136Z,84.41
2023-12-13T13:00:08.537Z,84.28
2023-12-13T13:02:36.584Z,84.67
2023-12-13T13:05:05.169Z,84.61
2023-12-13T13:07:35.627Z,84.55
2023-12-13T13:10:06.450Z,84.48
2023-12-13T13:12:34.482Z,84.52
2023-12-13T13:15:02.487Z,84.53
2023-12-13T13:17:31.697Z,84.59
2023-12-13T13:20:02.981Z,84.53
2023-12-13T13:22:31.094Z,84.69
2023-12-13T13:24:59.215Z,84.52
2023-12-13T13:27:29.173Z,84.50
2023-12-13T13:29:57.720Z,84.51
2023-12-13T13:32:26.164Z,84.39
2023-12-13T13:34:54.813Z,84.61
2023-12-13T13:37:23.213Z,84.94
2023-12-13T13:39:51.497Z,84.88
2023-12-13T13:42:19.490Z,85.02
2023-12-13T13:44:47.601Z,85.11
2023-12-13T13:47:15.653Z,84.93
2023-12-13T13:49:43.860Z,84.61
2023-12-13T13:52:12.164Z,84.74
2023-12-13T13:54:41.072Z,85.01
2023-12-13T13:57:09.521Z,85.25
2023-12-13T13:59:37.696Z,85.33
2023-12-13T14:02:06.694Z,85.32
2023-12-13T14:04:34.868Z,85.44
2023-12-13T14:07:03.113Z,85.59
2023-12-13T14:09:31.279Z,85.60
2023-12-13T14:11:59.405Z,85.55
2023-12-13T14:14:27.511Z,85.73
2023-12-13T14:16:55.493Z,85.93
2023-12-13T14:19:23.582Z,86.10
2023-12-13T14:21:51.817Z,86.22
2023-12-13T14:24:20.190Z,86.42
2023-12-13T14:26:48.865Z,86.64
2023-12-13T14:29:17.198Z,86.57
2023-12-13T14:31:46.102Z,86.22
2023-12-13T14:34:14.205Z,86.32
2023-12-13T14:36:42.306Z,86.25
2023-12-13T14:39:10.156Z,86.27
2023-12-13T14:41:38.321Z,86.04
2023-12-13T14:44:08.970Z,86.20
2023-12-13T14:46:37.832Z,86.68
2023-12-13T14:49:09.251Z,86.84
2023-12-13T14:51:38.729Z,86.73
2023-12-13T14:54:06.890Z,86.13
2023-12-13T14:56:37.400Z,86.30
2023-12-13T14:59:05.912Z,86.57
2023-12-13T15:01:34.305Z,86.59
2023-12-13T15:04:03.731Z,86.65
2023-12-13T15:06:36.679Z,86.71
2023-12-13T15:09:04.872Z,86.79
2023-12-13T15:11:32.935Z,86.78
2023-12-13T15:14:01.103Z,86.96
2023-12-13T15:16:30.109Z,87.03
2023-12-13T15:19:01.252Z,86.96
2023-12-13T15:21:29.896Z,87.09
2023-12-13T15:23:58.202Z,86.89
2023-12-13T15:26:26.540Z,86.89
2023-12-13T15:28:55.254Z,86.89
2023-12-13T15:31:25.206Z,86.82
2023-12-13T15:33:53.388Z,86.75
2023-12-13T15:36:22.246Z,86.83
2023-12-13T15:38:50.388Z,86.70
2023-12-13T15:41:18.773Z,86.57
2023-12-13T15:43:48.169Z,86.42
2023-12-13T15:46:16.504Z,86.33
2023-12-13T15:48:44.599Z,86.19
2023-12-13T15:51:12.681Z,86.10
2023-12-13T15:53:40.901Z,86.13
2023-12-13T15:56:09.573Z,86.18
2023-12-13T15:58:41.877Z,85.98
2023-12-13T16:01:10.625Z,86.01
2023-12-13T16:03:39.586Z,85.83
2023-12-13T16:06:08.053Z,85.44
2023-12-13T16:08:36.196Z,85.38
2023-12-13T16:11:09.542Z,85.48
2023-12-13T16:13:39.812Z,85.58
2023-12-13T16:16:08.843Z,85.66
2023-12-13T16:18:37.085Z,85.61
2023-12-13T16:21:07.361Z,85.83
2023-12-13T16:23:36.557Z,85.64
2023-12-13T16:26:04.882Z,85.76
2023-12-13T16:28:32.922Z,85.79
2023-12-13T16:31:01.492Z,85.71
2023-12-13T16:33:29.500Z,85.67
2023-12-13T16:35:57.720Z,85.65
2023-12-13T16:38:26.629Z,85.79
2023-12-13T16:40:55.033Z,85.89
2023-12-13T16:43:23.228Z,85.74
2023-12-13T16:45:52.081Z,85.73
2023-12-13T16:48:21.190Z,85.54
2023-12-13T16:50:49.446Z,85.59
2023-12-13T16:53:17.502Z,85.56
2023-12-13T16:55:45.456Z,85.60
2023-12-13T16:58:14.158Z,85.44
2023-12-13T17:00:43.913Z,85.46
2023-12-13T17:03:13.258Z,85.49
2023-12-13T17:05:41.918Z,85.73
2023-12-13T17:08:10.864Z,85.88
2023-12-13T17:10:39.129Z,85.84
2023-12-13T17:13:07.335Z,85.90
2023-12-13T17:15:35.301Z,85.87
2023-12-13T17:18:03.553Z,85.72
2023-12-13T17:20:31.521Z,85.58
2023-12-13T17:22:59.763Z,85.48
2023-12-13T17:25:27.872Z,85.72
2023-12-13T17:27:55.823Z,85.96
2023-12-13T17:30:24.161Z,85.86
2023-12-13T17:32:52.408Z,85.64
2023-12-13T17:35:22.176Z,85.69
2023-12-13T17:37:50.160Z,85.56
2023-12-13T17:40:18.954Z,85.52
2023-12-13T17:42:47.117Z,85.54
2023-12-13T17:45:15.332Z,85.57
2023-12-13T17:47:43.520Z,85.64
2023-12-13T17:50:11.650Z,85.50
2023-12-13T17:52:40.011Z,85.43
2023-12-13T17:55:08.458Z,85.28
2023-12-13T17:57:36.575Z,85.23
2023-12-13T18:00:05.894Z,85.47
2023-12-13T18:02:34.162Z,85.50
2023-12-13T18:05:02.541Z,85.68
2023-12-13T18:07:33.238Z,85.34
2023-12-13T18:10:02.798Z,85.11
2023-12-13T18:12:31.055Z,84.89
2023-12-13T18:15:02.856Z,84.79
2023-12-13T18:17:32.723Z,84.95
2023-12-13T18:20:01.941Z,84.62
2023-12-13T18:22:30.077Z,84.52
2023-12-13T18:24:58.281Z,84.49
2023-12-13T18:27:26.478Z,84.51
2023-12-13T18:29:54.538Z,84.46
2023-12-13T18:32:22.579Z,84.37
2023-12-13T18:34:50.668Z,84.52
2023-12-13T18:37:19.100Z,84.77
2023-12-13T18:39:47.573Z,85.15
2023-12-13T18:42:15.534Z,85.19
2023-12-13T18:44:43.572Z,85.41
2023-12-13T18:47:11.534Z,85.25
2023-12-13T18:49:41.098Z,85.43
2023-12-13T18:52:09.282Z,85.40
2023-12-13T18:54:38.376Z,85.54
2023-12-13T18:57:06.485Z,85.71
2023-12-13T18:59:35.367Z,85.98
2023-12-13T19:02:03.491Z,86.23
2023-12-13T19:04:31.478Z,86.32
2023-12-13T19:06:59.717Z,86.43
2023-12-13T19:09:29.145Z,86.45
2023-12-13T19:11:57.552Z,86.73
2023-12-13T19:14:28.676Z,86.78
2023-12-13T19:16:56.682Z,86.63
2023-12-13T19:19:24.814Z,86.52
2023-12-13T19:21:53.139Z,86.78
2023-12-13T19:24:21.108Z,86.93
2023-12-13T19:26:49.129Z,86.54
2023-12-13T19:29:17.719Z,86.41
2023-12-13T19:31:46.454Z,86.66
2023-12-13T19:34:23.176Z,86.99
2023-12-13T19:36:59.535Z,87.13
2023-12-13T19:39:27.626Z,87.10
2023-12-13T19:41:55.918Z,86.62
2023-12-13T19:44:23.967Z,86.83
2023-12-13T19:46:52.114Z,87.07
2023-12-13T19:49:20.212Z,86.97
2023-12-13T19:51:51.394Z,86.91
2023-12-13T19:54:19.499Z,87.03
2023-12-13T19:56:47.857Z,86.93
2023-12-13T19:59:16.172Z,86.86
2023-12-13T20:01:44.446Z,86.89
2023-12-13T20:04:12.718Z,86.41
2023-12-13T20:06:40.736Z,86.31
2023-12-13T20:09:08.923Z,86.53
2023-12-13T20:11:37.077Z,86.41
2023-12-13T20:14:05.809Z,86.39
2023-12-13T20:16:34.119Z,86.54
2023-12-13T20:19:02.292Z,86.48
2023-12-13T20:21:31.976Z,86.44
2023-12-13T20:24:00.730Z,86.77
2023-12-13T20:26:29.738Z,86.86
2023-12-13T20:28:58.205Z,87.24
2023-12-13T20:31:26.287Z,86.71
2023-12-13T20:33:54.529Z,86.55
2023-12-13T20:36:22.886Z,86.30
2023-12-13T20:38:51.552Z,86.08
2023-12-13T20:41:19.770Z,86.25
2023-12-13T20:43:47.908Z,86.54
2023-12-13T20:46:15.972Z,86.78
2023-12-13T20:48:44.064Z,86.74
2023-12-13T20:51:12.123Z,86.54
2023-12-13T20:53:42.846Z,86.82
2023-12-13T20:56:11.781Z,86.93
2023-12-13T20:58:41.047Z,86.99
2023-12-13T21:01:09.202Z,87.06
2023-12-13T21:03:38.397Z,87.01
2023-12-13T21:06:06.925Z,87.16
2023-12-13T21:08:35.014Z,87.22
2023-12-13T21:11:03.281Z,87.34
2023-12-13T21:13:33.409Z,87.64
2023-12-13T21:16:01.809Z,87.81
2023-12-13T21:18:30.185Z,87.62
2023-12-13T21:20:58.714Z,87.36
2023-12-13T21:23:26.910Z,87.85
2023-12-13T21:25:54.988Z,88.50
2023-12-13T21:28:23.575Z,88.57
2023-12-13T21:30:52.343Z,88.23
2023-12-13T21:33:20.536Z,88.28
2023-12-13T21:35:50.231Z,88.22
2023-12-13T21:38:18.715Z,87.93
2023-12-13T21:40:46.884Z,87.81
2023-12-13T21:43:14.929Z,88.06
2023-12-13T21:45:43.007Z,88.28
2023-12-13T21:48:11.235Z,88.44
2023-12-13T21:50:39.562Z,88.49
2023-12-13T21:53:07.465Z,88.58
2023-12-13T21:55:36.313Z,88.68
2023-12-13T21:58:04.394Z,88.66
2023-12-13T22:00:32.489Z,88.54
2023-12-13T22:03:00.631Z,88.20
2023-12-13T22:05:28.918Z,88.18
2023-12-13T22:07:56.966Z,88.39
2023-12-13T22:10:28.135Z,88.24
2023-12-13T22:12:56.658Z,88.08
2023-12-13T22:15:24.614Z,88.11
2023-12-13T22:17:56.040Z,88.02
2023-12-13T22:20:24.550Z,88.04
2023-12-13T22:22:52.969Z,87.52
2023-12-13T22:25:21.410Z,87.74
2023-12-13T22:27:49.429Z,87.89
2023-12-13T22:30:17.640Z,87.53
2023-12-13T22:32:45.780Z,87.91
2023-12-13T22:35:14.012Z,87.89
2023-12-13T22:37:42.404Z,87.52
2023-12-13T22:40:10.930Z,87.73
2023-12-13T22:42:39.096Z,88.04
2023-12-13T22:45:07.424Z,88.72
2023-12-13T22:47:35.431Z,89.03
2023-12-13T22:50:03.972Z,88.84
2023-12-13T22:52:33.205Z,89.11
2023-12-13T22:55:01.308Z,89.23
2023-12-13T22:57:29.209Z,88.86
2023-12-13T22:59:57.607Z,88.86
2023-12-13T23:02:25.710Z,88.90
2023-12-13T23:04:54.141Z,89.06
2023-12-13T23:07:22.357Z,89.36
2023-12-13T23:09:50.385Z,89.12
2023-12-13T23:12:18.340Z,88.88
2023-12-13T23:14:46.553Z,89.01
2023-12-13T23:17:14.659Z,89.38
2023-12-13T23:19:42.789Z,89.39
2023-12-13T23:22:11.068Z,89.44
2023-12-13T23:24:39.360Z,89.54
2023-12-13T23:27:07.654Z,89.78
2023-12-13T23:29:39.190Z,89.87
2023-12-13T23:32:07.685Z,90.25
2023-12-13T23:34:35.912Z,90.14
2023-12-13T23:37:04.097Z,90.27
2023-12-13T23:39:32.133Z,90.58
2023-12-13T23:42:00.249Z,90.81
2023-12-13T23:44:28.442Z,90.70
2023-12-13T23:46:58.830Z,90.76
2023-12-13T23:49:27.039Z,91.11
2023-12-13T23:51:55.476Z,91.44
2023-12-13T23:54:23.658Z,91.74
2023-12-13T23:56:51.646Z,91.65
2023-12-13T23:59:19.889Z,91.76
